Time;durP1;ratioP1;P1;durP2;ratioP2;P2;SDS_P1;SDS_P2;PMS_P1;PMS_P2;Temp;Humidity;BMP_temperature;BMP_pressure;BME280_temperature;BME280_humidity;BME280_pressure;Samples;Min_cycle;Max_cycle;Signal;HPM_P1;HPM_P2
2023/05/17 00:02:09;;;;;;;8.83;4.20;;;10.40;97.00;;;9.67;68.60;101430.41;5014556;28;20284;-71
2023/05/17 00:04:43;;;;;;;8.93;3.70;;;10.30;97.50;;;9.72;68.82;101426.50;5014071;28;20207;-71
2023/05/17 00:07:17;;;;;;;5.67;3.20;;;10.30;97.40;;;9.61;69.05;101433.66;5014419;28;20674;-71
2023/05/17 00:09:50;;;;;;;8.33;3.93;;;10.20;97.70;;;9.49;70.31;101426.72;5014340;28;20231;-71
2023/05/17 00:12:23;;;;;;;7.70;3.90;;;10.10;98.20;;;9.51;69.68;101426.59;5014357;28;20202;-70
2023/05/17 00:14:57;;;;;;;8.07;3.73;;;10.10;98.10;;;9.58;69.53;101422.38;5013702;28;20235;-70
2023/05/17 00:17:31;;;;;;;10.83;3.80;;;10.10;98.00;;;9.64;69.14;101430.69;5014301;28;20283;-70
2023/05/17 00:20:04;;;;;;;8.40;3.57;;;10.20;97.90;;;9.63;69.35;101423.66;5014182;28;20285;-70
2023/05/17 00:22:39;;;;;;;11.07;3.63;;;10.20;98.20;;;9.57;70.15;101431.38;5013922;28;20635;-70
2023/05/17 00:25:13;;;;;;;7.00;3.90;;;10.20;98.30;;;9.56;70.43;101425.19;5014105;28;20317;-70
2023/05/17 00:27:46;;;;;;;9.00;4.23;;;10.10;98.50;;;9.57;70.84;101426.03;5014177;28;20200;-70
2023/05/17 00:30:20;;;;;;;11.60;3.73;;;10.10;98.70;;;9.51;70.58;101429.25;5013411;28;20318;-70
2023/05/17 00:32:53;;;;;;;8.23;3.70;;;10.10;98.60;;;9.50;71.30;101428.41;5013918;28;20218;-70
2023/05/17 00:35:28;;;;;;;8.60;3.80;;;10.10;98.70;;;9.40;71.41;101429.38;5014018;28;20195;-70
2023/05/17 00:38:01;;;;;;;9.60;4.67;;;10.00;98.80;;;9.45;70.71;101427.97;5013689;28;20660;-70
2023/05/17 00:40:35;;;;;;;10.67;3.70;;;10.10;98.70;;;9.46;70.59;101440.34;5013907;28;20281;-70
2023/05/17 00:43:09;;;;;;;8.33;4.13;;;10.10;98.70;;;9.51;70.25;101427.44;5013680;28;20662;-70
2023/05/17 00:45:43;;;;;;;7.87;3.90;;;10.10;98.50;;;9.48;70.56;101427.72;5013806;28;20311;-70
2023/05/17 00:48:16;;;;;;;6.70;3.93;;;10.10;98.70;;;9.49;71.04;101450.75;5013892;28;20194;-70
2023/05/17 00:50:51;;;;;;;8.17;3.40;;;10.10;98.80;;;9.44;71.37;101438.81;5013466;28;20640;-70
2023/05/17 00:53:24;;;;;;;6.80;3.37;;;10.00;99.10;;;9.37;71.99;101435.84;5013841;28;20277;-70
2023/05/17 00:55:58;;;;;;;9.57;3.60;;;9.90;99.30;;;9.39;71.33;101444.53;5014022;28;20258;-70
2023/05/17 00:58:33;;;;;;;8.33;3.87;;;9.90;99.10;;;9.32;71.74;101442.53;5013767;28;20290;-70
2023/05/17 01:01:07;;;;;;;7.07;3.83;;;9.90;99.30;;;9.21;72.49;101440.84;5013654;28;20226;-70
2023/05/17 01:03:41;;;;;;;6.30;3.50;;;9.80;99.60;;;9.17;72.97;101444.75;5013734;28;20187;-70
2023/05/17 01:06:15;;;;;;;8.10;4.20;;;9.80;99.80;;;9.13;73.17;101436.16;5013833;28;20226;-70
2023/05/17 01:08:48;;;;;;;7.47;3.50;;;9.70;99.90;;;9.16;72.42;101443.91;5013395;28;20637;-70
2023/05/17 01:11:38;;;;;;;9.73;4.03;;;9.80;99.80;;;9.26;71.99;101446.63;5013595;28;20245;-70
2023/05/17 01:14:30;;;;;;;9.77;4.20;;;9.80;99.50;;;9.31;72.00;101446.22;5013327;28;20663;-70
2023/05/17 01:17:13;;;;;;;8.93;3.80;;;9.90;99.40;;;9.18;72.80;101445.59;5013595;28;20225;-70
2023/05/17 01:20:06;;;;;;;8.10;3.57;;;9.80;99.60;;;9.26;71.60;101438.59;5013470;28;20294;-70
2023/05/17 01:22:51;;;;;;;12.00;4.17;;;9.80;99.50;;;9.16;72.84;101435.03;5013235;28;20539;-70
2023/05/17 01:25:54;;;;;;;8.10;4.10;;;9.70;99.90;;;9.20;72.16;101438.28;5013371;28;20255;-70
2023/05/17 01:28:30;;;;;;;16.33;4.53;;;9.70;99.80;;;9.06;73.81;101447.50;5013685;28;20282;-70
2023/05/17 01:31:07;;;;;;;6.60;3.80;;;9.60;99.90;;;8.96;73.92;101444.81;5013020;28;20664;-70
2023/05/17 01:33:41;;;;;;;14.70;4.47;;;9.50;99.90;;;9.02;73.40;101441.59;5013156;28;20309;-70
2023/05/17 01:36:15;;;;;;;10.40;4.20;;;9.60;99.90;;;8.89;73.86;101440.13;5013407;28;20191;-70
2023/05/17 01:38:48;;;;;;;9.27;4.00;;;9.50;99.90;;;8.94;74.14;101448.56;5013121;28;20640;-70
2023/05/17 01:41:30;;;;;;;10.60;4.80;;;9.60;99.90;;;8.86;74.76;101451.91;5014707;28;20270;-70
2023/05/17 01:44:16;;;;;;;11.17;3.90;;;9.40;99.90;;;8.91;74.23;101448.81;5016789;28;20637;-70
2023/05/17 01:46:55;;;;;;;11.33;4.43;;;9.50;99.90;;;8.85;74.67;101454.69;5016999;28;20258;-70
2023/05/17 01:49:36;;;;;;;9.63;4.70;;;9.50;99.90;;;8.84;75.17;101458.34;5016984;28;20199;-70
2023/05/17 01:52:18;;;;;;;10.77;4.37;;;9.40;99.90;;;8.84;75.01;101458.34;5016991;28;20223;-70
2023/05/17 01:55:02;;;;;;;8.47;4.07;;;9.40;99.90;;;8.95;74.58;101460.94;5016930;28;20307;-70
2023/05/17 01:57:39;;;;;;;11.20;4.10;;;9.60;99.90;;;8.97;73.81;101469.69;5016876;28;20274;-70
2023/05/17 02:00:15;;;;;;;11.73;4.50;;;9.50;99.90;;;8.88;74.65;101467.78;5016474;28;20712;-70
2023/05/17 02:02:48;;;;;;;13.37;4.53;;;9.50;99.90;;;8.94;74.03;101461.91;5016778;28;20278;-70
2023/05/17 02:05:22;;;;;;;9.57;4.40;;;9.60;99.90;;;8.93;74.55;101473.59;5016371;28;20219;-70
2023/05/17 02:07:55;;;;;;;15.63;4.73;;;9.60;99.90;;;8.97;73.60;101473.19;5016670;28;20286;-70
2023/05/17 02:10:28;;;;;;;10.60;4.27;;;9.50;99.90;;;8.95;74.17;101474.28;5016577;28;20223;-70
2023/05/17 02:13:02;;;;;;;11.07;4.40;;;9.50;99.90;;;8.98;73.51;101482.03;5016588;28;20192;-70
2023/05/17 02:15:35;;;;;;;10.30;4.97;;;9.60;99.90;;;8.87;74.86;101476.78;5016779;28;20275;-70
2023/05/17 02:18:10;;;;;;;13.27;4.90;;;9.50;99.90;;;8.75;76.56;101476.00;5016507;28;20214;-70
2023/05/17 02:20:44;;;;;;;12.30;4.37;;;9.40;99.90;;;8.83;75.50;101478.03;5016408;28;20237;-70
2023/05/17 02:23:17;;;;;;;11.33;4.33;;;9.40;99.90;;;8.78;76.17;101474.91;5015865;28;20283;-70
2023/05/17 02:25:51;;;;;;;9.43;4.23;;;9.40;99.90;;;8.83;75.13;101475.38;5015640;28;20207;-69
2023/05/17 02:28:24;;;;;;;10.47;4.67;;;9.40;99.90;;;8.86;75.85;101477.75;5016014;28;20188;-69
2023/05/17 02:30:57;;;;;;;9.33;4.67;;;9.40;99.90;;;8.90;75.54;101479.19;5015674;28;20266;-69
2023/05/17 02:33:31;;;;;;;11.90;4.50;;;9.50;99.90;;;8.90;75.80;101481.88;5015958;28;20215;-69
2023/05/17 02:36:07;;;;;;;12.57;4.53;;;9.50;99.90;;;8.90;76.43;101471.19;5016404;28;20283;-69
2023/05/17 02:38:41;;;;;;;12.23;5.07;;;9.50;99.90;;;8.82;76.88;101477.19;5016082;28;20321;-69
2023/05/17 02:41:15;;;;;;;11.13;4.83;;;9.40;99.90;;;8.85;76.44;101486.75;5016007;28;20239;-69
2023/05/17 02:43:49;;;;;;;12.17;4.63;;;9.40;99.90;;;8.82;77.00;101490.53;5015824;28;20286;-71
2023/05/17 02:46:22;;;;;;;11.10;4.90;;;9.40;99.90;;;8.76;77.91;101484.88;5015951;28;20306;-71
2023/05/17 02:48:56;;;;;;;19.20;5.67;;;9.40;99.90;;;8.63;79.05;101488.56;5015321;28;20755;-71
2023/05/17 02:51:29;;;;;;;14.13;5.00;;;9.20;99.90;;;8.67;78.29;101483.81;5014935;28;20232;-71
2023/05/17 02:54:03;;;;;;;12.27;5.20;;;9.30;99.90;;;8.61;78.89;101497.69;5015781;28;20191;-71
2023/05/17 02:56:36;;;;;;;14.33;5.07;;;9.20;99.90;;;8.69;78.58;101497.91;5015495;28;20648;-71
2023/05/17 02:59:10;;;;;;;11.90;5.13;;;9.30;99.90;;;8.72;77.99;101496.78;5015451;28;20191;-71
2023/05/17 03:01:43;;;;;;;12.03;5.13;;;9.40;99.90;;;8.67;78.36;101502.50;5015584;28;20231;-71
2023/05/17 03:04:22;;;;;;;15.87;4.53;;;9.20;99.90;;;8.71;77.52;101500.41;5015676;28;20282;-70
2023/05/17 03:06:56;;;;;;;9.90;4.60;;;9.40;99.90;;;8.69;77.97;101505.06;5015499;28;20207;-70
2023/05/17 03:09:29;;;;;;;13.73;5.07;;;9.30;99.90;;;8.73;77.84;101507.34;5015545;28;20303;-70
2023/05/17 03:12:03;;;;;;;13.50;5.50;;;9.40;99.90;;;8.70;78.17;101509.44;5015114;28;20787;-70
2023/05/17 03:14:36;;;;;;;15.27;5.47;;;9.30;99.90;;;8.68;78.19;101514.03;5015432;28;20188;-70
2023/05/17 03:17:09;;;;;;;12.93;4.63;;;9.30;99.90;;;8.56;79.18;101511.41;5015105;28;20624;-70
2023/05/17 03:19:42;;;;;;;12.73;5.63;;;9.20;99.90;;;8.60;78.94;101522.66;5015388;28;20283;-70
2023/05/17 03:22:16;;;;;;;11.50;5.20;;;9.20;99.90;;;8.57;79.28;101517.59;5015294;28;20192;-70
2023/05/17 03:24:49;;;;;;;12.37;5.43;;;9.20;99.90;;;8.55;79.49;101517.75;5015482;28;20196;-70
2023/05/17 03:27:22;;;;;;;16.07;6.00;;;9.20;99.90;;;8.57;78.63;101526.44;5015171;28;20220;-70
2023/05/17 03:29:56;;;;;;;16.90;5.73;;;9.20;99.90;;;8.62;78.22;101526.06;5015102;28;20192;-70
2023/05/17 03:32:29;;;;;;;11.83;5.27;;;9.20;99.90;;;8.64;78.22;101530.31;5015040;28;20333;-70
2023/05/17 03:35:03;;;;;;;15.27;5.77;;;9.30;99.90;;;8.70;77.66;101536.13;5015098;28;20204;-70
2023/05/17 03:37:37;;;;;;;11.70;5.60;;;9.30;99.90;;;8.57;78.69;101544.28;5014718;28;20183;-70
2023/05/17 03:40:13;;;;;;;13.87;5.50;;;9.20;99.90;;;8.53;78.86;101546.34;5014917;28;20639;-70
2023/05/17 03:42:46;;;;;;;19.23;5.17;;;9.10;99.90;;;8.52;78.94;101544.69;5014565;28;20639;-70
2023/05/17 03:45:19;;;;;;;17.67;5.57;;;9.10;99.90;;;8.55;78.39;101549.75;5014620;28;20283;-70
2023/05/17 03:47:53;;;;;;;14.67;5.57;;;9.20;99.90;;;8.61;77.96;101551.91;5014876;28;20278;-70
2023/05/17 03:50:26;;;;;;;19.13;5.87;;;9.20;99.90;;;8.61;78.28;101554.59;5014401;28;20727;-70
2023/05/17 03:53:00;;;;;;;15.23;5.10;;;9.20;99.90;;;8.48;79.00;101548.59;5014758;28;20290;-70
2023/05/17 03:55:33;;;;;;;11.90;5.60;;;9.10;99.90;;;8.54;77.83;101553.41;5014390;28;20713;-70
2023/05/17 03:58:06;;;;;;;18.63;5.60;;;9.20;99.90;;;8.50;78.76;101561.78;5014624;28;20196;-70
2023/05/17 04:00:40;;;;;;;13.97;5.53;;;9.20;99.90;;;8.56;78.40;101567.44;5014536;28;20323;-70
2023/05/17 04:03:13;;;;;;;9.93;5.80;;;9.20;99.90;;;8.58;77.88;101570.84;5014201;28;20274;-70
2023/05/17 04:05:47;;;;;;;15.60;5.93;;;9.20;99.90;;;8.55;78.24;101571.13;5014801;28;20270;-70
2023/05/17 04:08:20;;;;;;;14.17;5.10;;;9.20;99.90;;;8.41;79.19;101579.41;5014519;28;20191;-70
2023/05/17 04:10:53;;;;;;;14.83;5.37;;;9.10;99.90;;;8.46;78.45;101579.88;5014409;28;20270;-70
2023/05/17 04:13:27;;;;;;;17.77;5.40;;;9.10;99.90;;;8.34;78.35;101586.22;5014060;28;20562;-70
2023/05/17 04:16:00;;;;;;;13.83;5.30;;;9.10;99.90;;;8.40;78.45;101585.72;5014343;28;20203;-70
2023/05/17 04:18:36;;;;;;;13.77;5.20;;;9.10;99.90;;;8.44;78.15;101589.84;5014347;28;20279;-70
2023/05/17 04:21:10;;;;;;;15.37;4.67;;;9.10;99.90;;;8.45;77.48;101594.19;5013835;28;20231;-70
2023/05/17 04:23:44;;;;;;;13.63;4.57;;;9.10;99.90;;;8.47;77.58;101586.06;5014221;28;20561;-70
2023/05/17 04:26:19;;;;;;;14.23;5.00;;;9.10;99.90;;;8.54;77.10;101592.59;5014103;28;20226;-70
2023/05/17 04:28:52;;;;;;;13.70;5.10;;;9.20;99.90;;;8.54;76.23;101590.78;5014207;28;20192;-70
2023/05/17 04:31:26;;;;;;;11.73;4.73;;;9.20;99.90;;;8.53;76.52;101605.06;5014003;28;20245;-70
2023/05/17 04:33:59;;;;;;;14.13;4.70;;;9.20;99.90;;;8.49;76.72;101598.28;5013691;28;20305;-70
2023/05/17 04:36:33;;;;;;;14.03;4.67;;;9.10;99.90;;;8.54;75.62;101609.44;5013652;28;20192;-70
2023/05/17 04:39:06;;;;;;;18.07;4.50;;;9.20;99.90;;;8.44;77.03;101616.50;5013997;28;20283;-70
2023/05/17 04:41:40;;;;;;;14.37;4.40;;;9.10;99.90;;;8.34;77.25;101626.25;5013861;28;20227;-70
2023/05/17 04:44:13;;;;;;;19.80;5.27;;;9.00;99.90;;;8.41;76.36;101627.44;5013907;28;20241;-70
2023/05/17 04:46:47;;;;;;;19.97;5.17;;;9.10;99.90;;;8.52;75.98;101630.09;5013510;28;20755;-70
2023/05/17 04:49:20;;;;;;;17.60;4.77;;;9.20;99.90;;;8.47;76.48;101642.09;5013561;28;20641;-70
2023/05/17 04:51:55;;;;;;;18.63;5.17;;;9.20;99.90;;;8.51;76.47;101648.88;5013742;28;20703;-70
2023/05/17 04:54:28;;;;;;;19.77;5.00;;;9.20;99.90;;;8.47;76.14;101642.09;5013526;28;20628;-70
2023/05/17 04:57:02;;;;;;;15.53;5.00;;;9.20;99.90;;;8.52;76.03;101646.09;5013815;28;20194;-70
2023/05/17 04:59:35;;;;;;;16.77;4.60;;;9.20;99.90;;;8.53;75.89;101650.44;5014336;28;20219;-70
2023/05/17 05:02:09;;;;;;;19.80;4.80;;;9.20;99.90;;;8.44;76.38;101659.22;5013757;28;20192;-70
2023/05/17 05:04:42;;;;;;;15.90;4.40;;;9.10;99.90;;;8.50;76.07;101658.72;5013976;28;20202;-70
2023/05/17 05:07:16;;;;;;;14.03;5.07;;;9.20;99.90;;;8.51;76.24;101660.41;5013314;28;20207;-70
2023/05/17 05:09:50;;;;;;;15.53;4.53;;;9.20;99.90;;;8.53;75.93;101663.78;5013585;28;20197;-70
2023/05/17 05:12:24;;;;;;;15.33;4.17;;;9.20;99.90;;;8.43;76.21;101662.84;5013333;28;20283;-70
2023/05/17 05:14:57;;;;;;;15.97;4.07;;;9.10;99.90;;;8.45;76.32;101671.59;5014195;28;20636;-70
2023/05/17 05:17:35;;;;;;;15.47;5.13;;;9.10;99.90;;;8.51;75.77;101672.91;5017779;28;20246;-70
2023/05/17 05:20:11;;;;;;;17.63;3.90;;;9.10;99.90;;;8.49;75.10;101680.19;5017413;28;20585;-70
2023/05/17 05:22:44;;;;;;;17.47;4.63;;;9.20;99.90;;;8.57;74.16;101683.94;5017592;28;20197;-70
2023/05/17 05:25:17;;;;;;;18.40;4.40;;;9.20;99.90;;;8.60;75.08;101680.16;5017197;28;20668;-70
2023/05/17 05:27:51;;;;;;;15.33;4.43;;;9.30;99.90;;;8.60;74.60;101686.34;5017074;28;20620;-70
2023/05/17 05:30:24;;;;;;;16.87;4.33;;;9.30;99.90;;;8.62;74.83;101684.41;5017649;28;20227;-71
2023/05/17 05:32:57;;;;;;;17.20;4.53;;;9.30;99.90;;;8.62;74.89;101688.91;5017002;28;20587;-71
2023/05/17 05:35:31;;;;;;;15.60;4.03;;;9.30;99.90;;;8.56;75.10;101694.75;5017526;28;20199;-71
2023/05/17 05:38:04;;;;;;;19.07;4.77;;;9.30;99.90;;;8.61;74.51;101697.88;5017285;28;20278;-71
2023/05/17 05:40:37;;;;;;;17.57;4.50;;;9.30;99.90;;;8.62;74.98;101700.44;5017145;28;20222;-71
2023/05/17 05:43:11;;;;;;;17.13;4.37;;;9.30;99.90;;;8.59;74.97;101700.69;5016942;28;20631;-71
2023/05/17 05:45:46;;;;;;;15.80;4.00;;;9.30;99.90;;;8.50;74.07;101698.75;5017135;28;20187;-71
2023/05/17 05:48:19;;;;;;;19.63;4.70;;;9.20;99.90;;;8.56;73.34;101706.25;5017024;28;20211;-70
2023/05/17 05:50:53;;;;;;;17.37;4.10;;;9.30;99.90;;;8.58;73.66;101716.81;5016939;28;20255;-70
2023/05/17 05:53:26;;;;;;;16.83;4.17;;;9.30;99.90;;;8.65;73.44;101708.19;5016989;28;20191;-70
2023/05/17 05:56:00;;;;;;;15.13;3.87;;;9.30;99.90;;;8.67;72.61;101708.03;5016940;28;20278;-70
2023/05/17 05:58:35;;;;;;;16.27;4.27;;;9.40;99.90;;;8.72;72.54;101718.38;5016899;28;20238;-70
2023/05/17 06:01:08;;;;;;;14.87;3.80;;;9.40;99.90;;;8.79;72.39;101722.22;5016802;28;20226;-70
2023/05/17 06:03:41;;;;;;;19.80;4.00;;;9.50;99.80;;;8.76;70.73;101714.47;5016814;28;20196;-70
2023/05/17 06:06:15;;;;;;;14.73;4.07;;;9.50;99.20;;;8.75;70.34;101716.28;5016739;28;20278;-70
2023/05/17 06:08:49;;;;;;;17.53;3.97;;;9.50;99.00;;;8.79;70.46;101714.22;5016590;28;20243;-70
2023/05/17 06:11:23;;;;;;;12.93;3.83;;;9.50;98.90;;;8.84;69.98;101730.69;5016322;28;20318;-71
2023/05/17 06:13:57;;;;;;;16.43;3.90;;;9.50;98.90;;;8.88;70.17;101726.81;5016724;28;20613;-71
2023/05/17 06:16:30;;;;;;;17.83;3.70;;;9.60;98.90;;;8.94;69.94;101726.31;5016322;28;20192;-71
2023/05/17 06:19:04;;;;;;;12.10;3.27;;;9.60;98.60;;;8.99;68.72;101737.47;5016584;28;20188;-71
2023/05/17 06:21:38;;;;;;;8.53;3.17;;;9.70;98.30;;;9.07;68.21;101735.88;5017345;28;20234;-71
2023/05/17 06:24:12;;;;;;;9.60;3.27;;;9.80;97.80;;;9.15;67.71;101740.56;5016159;28;20230;-71
2023/05/17 06:26:45;;;;;;;15.27;3.33;;;9.90;97.60;;;9.22;64.78;101744.44;5015836;28;20223;-71
2023/05/17 06:29:19;;;;;;;16.50;3.87;;;9.90;96.40;;;9.20;65.24;101749.06;5016094;28;20199;-71
2023/05/17 06:31:55;;;;;;;11.40;3.70;;;9.90;96.20;;;9.25;65.93;101733.50;5016232;28;20234;-71
2023/05/17 06:34:28;;;;;;;13.73;2.87;;;9.90;96.60;;;9.27;66.34;101744.06;5016241;28;20225;-71
2023/05/17 06:37:01;;;;;;;14.43;3.20;;;10.00;96.80;;;9.28;65.53;101743.91;5016275;28;20198;-71
2023/05/17 06:39:34;;;;;;;15.23;3.33;;;10.00;96.50;;;9.33;64.78;101743.53;5016255;28;20275;-70
2023/05/17 06:42:09;;;;;;;14.90;3.50;;;10.00;95.80;;;9.36;63.39;101743.28;5016082;28;20227;-70
2023/05/17 06:44:42;;;;;;;11.70;3.57;;;10.00;95.10;;;9.39;63.60;101743.88;5016061;28;20191;-70
2023/05/17 06:47:17;;;;;;;11.87;3.00;;;10.10;95.20;;;9.41;61.99;101747.28;5015924;28;20269;-70
2023/05/17 06:49:50;;;;;;;8.73;2.73;;;10.10;94.70;;;9.45;61.12;101754.03;5015874;28;20195;-70
2023/05/17 06:52:24;;;;;;;11.97;3.07;;;10.10;93.70;;;9.48;60.94;101756.50;5015920;28;20198;-70
2023/05/17 06:54:57;;;;;;;13.20;2.87;;;10.20;93.70;;;9.54;58.60;101753.28;5015822;28;20286;-70
2023/05/17 06:57:31;;;;;;;9.67;2.63;;;10.20;92.70;;;9.57;57.68;101763.72;5015500;28;20188;-70
2023/05/17 07:00:05;;;;;;;8.13;2.30;;;10.30;91.90;;;9.58;56.40;101776.13;5015677;28;20258;-70
2023/05/17 07:02:38;;;;;;;11.07;2.93;;;10.30;91.50;;;9.59;56.74;101767.09;5015721;28;20241;-70
2023/05/17 07:05:12;;;;;;;7.87;2.93;;;10.30;91.40;;;9.57;57.29;101777.09;5015642;28;20188;-70
2023/05/17 07:07:46;;;;;;;16.10;2.93;;;10.30;91.70;;;9.64;57.58;101775.59;5015516;28;20591;-70
2023/05/17 07:10:19;;;;;;;14.17;3.10;;;10.40;92.10;;;9.73;58.17;101779.31;5015510;28;20227;-70
2023/05/17 07:12:52;;;;;;;10.67;2.60;;;10.40;92.10;;;9.80;56.45;101779.63;5015186;28;20231;-70
2023/05/17 07:15:26;;;;;;;12.83;2.97;;;10.50;91.20;;;9.82;55.81;101783.06;5015491;28;20195;-70
2023/05/17 07:17:59;;;;;;;8.03;2.13;;;10.50;91.00;;;9.79;56.36;101794.88;5015104;28;20215;-70
2023/05/17 07:20:33;;;;;;;13.07;2.90;;;10.40;90.90;;;9.79;56.54;101794.00;5015328;28;20259;-70
2023/05/17 07:23:07;;;;;;;11.47;2.77;;;10.50;91.20;;;9.83;56.18;101795.44;5015041;28;20234;-70
2023/05/17 07:25:41;;;;;;;12.47;2.50;;;10.50;91.00;;;9.82;57.12;101805.31;5015259;28;20274;-70
2023/05/17 07:28:15;;;;;;;11.70;2.70;;;10.50;91.40;;;9.81;57.12;101814.28;5014841;28;20738;-70
2023/05/17 07:30:48;;;;;;;9.57;2.60;;;10.50;91.50;;;9.89;57.13;101817.19;5014831;28;20746;-70
2023/05/17 07:33:22;;;;;;;13.97;3.17;;;10.60;91.50;;;9.88;57.77;101819.97;5014901;28;20221;-70
2023/05/17 07:35:56;;;;;;;12.20;2.77;;;10.50;91.70;;;9.89;58.09;101816.31;5015123;28;20190;-70
2023/05/17 07:38:29;;;;;;;12.73;2.80;;;10.50;91.80;;;9.86;58.14;101827.28;5014063;28;20196;-70
2023/05/17 07:41:02;;;;;;;8.50;3.03;;;10.50;91.90;;;9.91;57.97;101830.41;5014965;28;20234;-70
2023/05/17 07:43:36;;;;;;;13.80;2.50;;;10.60;92.00;;;9.91;57.25;101825.91;5015026;28;20273;-70
2023/05/17 07:46:09;;;;;;;14.00;2.93;;;10.60;91.60;;;9.92;57.10;101832.13;5014927;28;20279;-70
2023/05/17 07:48:42;;;;;;;12.03;3.17;;;10.60;91.50;;;10.03;58.32;101840.09;5014892;28;20636;-70
2023/05/17 07:51:16;;;;;;;13.87;3.00;;;10.70;92.00;;;10.18;59.60;101850.34;5014803;28;20227;-70
2023/05/17 07:53:49;;;;;;;11.40;2.90;;;10.90;92.60;;;10.29;54.67;101838.72;5014801;28;20219;-70
2023/05/17 07:56:22;;;;;;;13.70;2.87;;;11.00;90.00;;;10.37;54.88;101857.66;5014767;28;20223;-70
2023/05/17 07:58:56;;;;;;;17.07;2.93;;;11.00;90.00;;;10.33;53.77;101853.56;5014710;28;20223;-70
2023/05/17 08:01:30;;;;;;;12.13;2.77;;;11.00;88.50;;;10.41;54.66;101851.06;5014595;28;20366;-70
2023/05/17 08:04:03;;;;;;;16.40;3.10;;;11.10;89.60;;;10.55;55.56;101845.34;5014594;28;20270;-70
2023/05/17 08:06:37;;;;;;;7.70;3.17;;;11.20;90.30;;;10.61;54.61;101858.22;5014336;28;20554;-71
2023/05/17 08:09:10;;;;;;;12.47;2.87;;;11.30;89.30;;;10.60;54.66;101855.66;5014484;28;20247;-71
2023/05/17 08:11:45;;;;;;;8.47;2.37;;;11.30;89.20;;;10.58;55.00;101868.34;5014438;28;20306;-71
2023/05/17 08:14:22;;;;;;;12.27;2.90;;;11.20;89.60;;;10.56;54.51;101876.50;5014160;28;20659;-71
2023/05/17 08:16:55;;;;;;;11.40;2.90;;;11.20;89.30;;;10.54;53.98;101865.09;5014412;28;20334;-71
2023/05/17 08:19:29;;;;;;;7.17;2.37;;;11.20;88.90;;;10.62;54.47;101869.75;5014344;28;20274;-71
2023/05/17 08:22:02;;;;;;;11.30;2.80;;;11.30;88.90;;;10.55;54.24;101869.44;5014212;28;20232;-71
2023/05/17 08:24:36;;;;;;;11.90;2.50;;;11.20;89.00;;;10.58;55.46;101869.19;5014303;28;20194;-71
2023/05/17 08:27:10;;;;;;;12.23;3.47;;;11.20;90.20;;;10.62;55.32;101875.97;5013967;28;20715;-71
2023/05/17 08:29:44;;;;;;;12.47;3.07;;;11.20;90.10;;;10.64;56.01;101866.00;5013843;28;20641;-71
2023/05/17 08:32:17;;;;;;;11.37;2.87;;;11.30;90.50;;;10.61;55.80;101874.31;5014035;28;20283;-71
2023/05/17 08:34:50;;;;;;;16.83;3.20;;;11.20;90.30;;;10.62;55.38;101875.13;5014098;28;20226;-71
2023/05/17 08:37:24;;;;;;;12.00;2.93;;;11.20;90.30;;;10.66;56.73;101874.72;5014005;28;20271;-71
2023/05/17 08:39:57;;;;;;;16.30;3.23;;;11.30;90.90;;;10.65;56.00;101873.03;5013844;28;20198;-71
2023/05/17 08:42:33;;;;;;;11.30;3.27;;;11.30;90.50;;;10.66;56.46;101888.13;5014665;28;20203;-71
2023/05/17 08:45:11;;;;;;;11.80;2.87;;;11.30;90.80;;;10.64;55.82;101881.22;5013959;28;20282;-71
2023/05/17 08:47:47;;;;;;;12.00;2.83;;;11.30;90.40;;;10.80;57.39;101884.25;5013932;28;20196;-71
2023/05/17 08:50:21;;;;;;;12.40;3.27;;;11.40;91.70;;;10.84;56.54;101877.63;5013500;28;20227;-71
2023/05/17 08:52:57;;;;;;;12.10;2.87;;;11.50;90.80;;;10.88;56.96;101878.22;5013970;28;20191;-71
2023/05/17 08:55:33;;;;;;;15.57;3.20;;;11.50;91.00;;;10.69;54.05;101887.84;5013893;28;20198;-71
2023/05/17 08:58:08;;;;;;;15.67;3.03;;;11.40;88.50;;;10.69;53.14;101882.50;5014076;28;20191;-71
2023/05/17 09:00:42;;;;;;;8.10;2.47;;;11.40;87.70;;;10.86;54.12;101875.66;5013348;28;20770;-71
2023/05/17 09:03:22;;;;;;;12.10;2.83;;;11.40;89.00;;;11.02;53.63;101880.53;5013754;28;20201;-71
2023/05/17 09:05:58;;;;;;;8.60;2.53;;;11.70;88.00;;;11.14;53.13;101876.75;5013702;28;20191;-71
2023/05/17 09:08:33;;;;;;;11.50;2.90;;;11.80;87.40;;;11.21;52.94;101888.63;5013344;28;20551;-71
2023/05/17 09:11:06;;;;;;;9.13;2.77;;;11.80;87.40;;;11.25;52.17;101883.84;5013601;28;20233;-71
2023/05/17 09:13:41;;;;;;;11.13;3.20;;;11.80;86.10;;;11.16;51.27;101880.16;5013622;28;20219;-71
2023/05/17 09:16:20;;;;;;;13.27;3.00;;;11.80;85.40;;;11.21;52.03;101891.31;5013329;28;20235;-71
2023/05/17 09:18:59;;;;;;;8.93;2.87;;;11.80;86.20;;;11.21;52.13;101888.63;5013560;28;20187;-71
2023/05/17 09:21:36;;;;;;;8.43;2.60;;;11.80;85.20;;;11.31;51.55;101876.09;5013498;28;20226;-71
2023/05/17 09:24:10;;;;;;;13.50;2.63;;;11.90;85.20;;;11.36;52.36;101881.91;5013539;28;20195;-71
2023/05/17 09:26:45;;;;;;;11.63;2.70;;;12.00;85.80;;;11.43;49.72;101877.69;5013495;28;20192;-71
2023/05/17 09:29:20;;;;;;;12.97;2.90;;;12.10;82.00;;;11.56;49.89;101877.44;5013442;28;20296;-71
2023/05/17 09:31:54;;;;;;;13.87;2.90;;;12.10;82.00;;;11.50;49.08;101867.25;5013346;28;20257;-71
2023/05/17 09:34:28;;;;;;;13.30;3.40;;;12.10;80.90;;;11.47;49.28;101868.34;5013078;28;20301;-71
2023/05/17 09:37:03;;;;;;;18.27;3.87;;;12.10;81.20;;;11.50;48.18;101867.25;5013444;28;20275;-71
2023/05/17 09:39:36;;;;;;;11.33;2.90;;;12.10;79.80;;;11.50;51.08;101889.56;5013718;28;20278;-70
2023/05/17 09:42:10;;;;;;;11.37;3.27;;;12.10;82.60;;;11.52;49.73;101886.72;5013796;28;20290;-70
2023/05/17 09:44:58;;;;;;;9.67;2.90;;;12.10;81.50;;;11.57;49.94;101893.41;5012970;28;20192;-70
2023/05/17 09:47:34;;;;;;;15.77;3.40;;;12.20;81.80;;;11.47;47.56;101889.81;5013138;28;20279;-70
2023/05/17 09:50:17;;;;;;;11.80;2.67;;;12.10;78.60;;;11.62;45.75;101887.59;5012082;28;20759;-70
2023/05/17 09:52:50;;;;;;;10.17;2.87;;;12.20;75.90;;;11.86;46.23;101879.16;5012583;28;20194;-70
2023/05/17 09:55:28;;;;;;;10.00;2.70;;;12.40;75.30;;;11.99;44.42;101874.34;5012548;28;20291;-70
2023/05/17 09:58:06;;;;;;;7.57;2.60;;;12.60;72.70;;;12.07;45.00;101871.81;5013657;28;20192;-70
2023/05/17 10:00:41;;;;;;;10.80;2.90;;;12.60;74.40;;;12.10;45.09;101872.38;5013146;28;20309;-70
2023/05/17 10:03:16;;;;;;;12.37;3.30;;;12.70;74.70;;;12.05;44.88;101868.44;5015848;28;20274;-70
2023/05/17 10:05:53;;;;;;;9.33;2.80;;;12.60;73.70;;;12.05;45.72;101868.44;5016741;28;20245;-70
2023/05/17 10:08:29;;;;;;;6.77;2.60;;;12.60;74.80;;;12.02;46.07;101872.25;5016741;28;20282;-70
2023/05/17 10:11:07;;;;;;;10.60;2.70;;;12.60;74.60;;;11.91;45.04;101868.88;5016531;28;20241;-70
2023/05/17 10:13:46;;;;;;;8.50;2.53;;;12.60;73.70;;;11.98;46.32;101878.91;5016647;28;20199;-70
2023/05/17 10:16:22;;;;;;;11.60;2.67;;;12.60;74.60;;;12.02;45.26;101879.47;5016568;28;20227;-70
2023/05/17 10:18:57;;;;;;;8.77;2.50;;;12.60;73.80;;;12.18;45.13;101879.72;5016527;28;20249;-70
2023/05/17 10:21:32;;;;;;;7.73;2.40;;;12.70;73.90;;;12.38;46.25;101886.78;5016394;28;20230;-70
2023/05/17 10:24:07;;;;;;;12.97;2.77;;;12.90;74.90;;;12.48;43.93;101878.69;5016157;28;20636;-71
2023/05/17 10:26:42;;;;;;;11.33;2.57;;;13.10;71.30;;;12.61;43.73;101871.16;5016385;28;20273;-71
2023/05/17 10:29:17;;;;;;;9.73;2.40;;;13.20;71.80;;;12.69;44.93;101869.44;5016256;28;20297;-71
2023/05/17 10:31:52;;;;;;;7.93;2.27;;;13.30;72.60;;;12.65;43.76;101884.16;5016226;28;20318;-71
2023/05/17 10:34:27;;;;;;;6.27;2.63;;;13.30;70.40;;;12.79;44.64;101873.94;5015899;28;20306;-71
2023/05/17 10:37:03;;;;;;;7.63;2.47;;;13.30;72.20;;;12.91;44.24;101875.44;5016150;28;20274;-71
2023/05/17 10:39:38;;;;;;;6.67;2.70;;;13.50;72.20;;;12.94;43.03;101881.38;5016171;28;20214;-71
2023/05/17 10:42:15;;;;;;;8.17;2.60;;;13.50;70.20;;;12.95;43.34;101882.19;5015815;28;20618;-71
2023/05/17 10:44:49;;;;;;;10.10;2.90;;;13.50;70.70;;;12.88;43.57;101881.09;5015726;28;20231;-71
2023/05/17 10:47:31;;;;;;;9.23;2.77;;;13.40;69.60;;;13.05;43.71;101880.31;5016028;28;20274;-71